createdAt,value
2022-08-28T00:04:42.435Z,100252.81
2022-08-28T00:09:45.455Z,100252.97
2022-08-28T00:14:48.260Z,100257.81
2022-08-28T00:19:52.362Z,100249.03
2022-08-28T00:24:55.103Z,100259.31
2022-08-28T00:29:59.235Z,100254.19
2022-08-28T00:35:03.362Z,100263.22
2022-08-28T00:40:07.274Z,100264.56
2022-08-28T00:45:10.841Z,100252.19
2022-08-28T00:50:17.927Z,100251.66
2022-08-28T00:55:22.283Z,100255.06
2022-08-28T01:00:27.079Z,100246.28
2022-08-28T01:05:31.155Z,100245.75
2022-08-28T01:10:34.545Z,100237.63
2022-08-28T01:15:37.291Z,100236.09
2022-08-28T01:20:44.908Z,100239.94
2022-08-28T01:25:49.010Z,100246.34
2022-08-28T01:30:51.966Z,100257.16
2022-08-28T01:35:54.711Z,100262.03
2022-08-28T01:40:59.450Z,100266.13
2022-08-28T01:46:04.368Z,100259.84
2022-08-28T01:51:07.182Z,100259.00
2022-08-28T01:56:13.220Z,100268.81
2022-08-28T02:01:17.665Z,100264.41
2022-08-28T02:06:20.454Z,100273.53
2022-08-28T02:11:24.620Z,100277.78
2022-08-28T02:16:27.317Z,100285.03
2022-08-28T02:21:30.068Z,100281.66
2022-08-28T02:26:34.206Z,100274.69
2022-08-28T02:31:37.050Z,100288.22
2022-08-28T02:36:41.708Z,100289.91
2022-08-28T02:41:45.768Z,100285.50
2022-08-28T02:46:48.456Z,100291.09
2022-08-28T02:51:51.178Z,100292.63
2022-08-28T02:56:55.462Z,100293.63
2022-08-28T03:01:58.325Z,100290.06
2022-08-28T03:07:00.999Z,100285.69
2022-08-28T03:12:05.688Z,100290.22
2022-08-28T03:17:08.398Z,100300.31
2022-08-28T03:22:11.076Z,100295.91
2022-08-28T03:27:15.246Z,100301.47
2022-08-28T03:32:18.173Z,100298.94
2022-08-28T03:37:21.118Z,100306.72
2022-08-28T03:42:25.342Z,100310.59
2022-08-28T03:47:29.678Z,100306.19
2022-08-28T03:52:32.414Z,100313.44
2022-08-28T03:57:36.838Z,100319.00
2022-08-28T04:02:40.572Z,100331.69
2022-08-28T04:07:43.224Z,100336.38
2022-08-28T04:12:47.270Z,100337.53
2022-08-28T04:17:50.039Z,100335.13
2022-08-28T04:22:55.092Z,100346.94
2022-08-28T04:28:00.941Z,100338.94
2022-08-28T04:33:03.660Z,100342.81
2022-08-28T04:38:06.403Z,100345.81
2022-08-28T04:43:10.658Z,100352.50
2022-08-28T04:48:14.041Z,100356.53
2022-08-28T04:53:18.049Z,100350.97
2022-08-28T04:58:23.774Z,100353.13
2022-08-28T05:03:26.928Z,100362.22
2022-08-28T05:08:29.624Z,100356.13
2022-08-28T05:13:34.272Z,100364.22
2022-08-28T05:18:36.965Z,100359.09
2022-08-28T05:23:39.876Z,100366.19
2022-08-28T05:28:44.106Z,100370.59
2022-08-28T05:33:47.344Z,100375.47
2022-08-28T05:38:50.284Z,100376.31
2022-08-28T05:43:55.008Z,100393.38
2022-08-28T05:48:57.777Z,100399.78
2022-08-28T05:54:00.559Z,100404.72
2022-08-28T05:59:06.656Z,100413.59
2022-08-28T06:04:11.307Z,100411.28
2022-08-28T06:09:15.813Z,100406.31
2022-08-28T06:14:20.744Z,100415.97
2022-08-28T06:19:24.563Z,100409.28
2022-08-28T06:24:27.950Z,100420.81
2022-08-28T06:29:31.984Z,100428.19
2022-08-28T06:34:34.731Z,100427.22
2022-08-28T06:39:38.506Z,100439.16
2022-08-28T06:44:42.915Z,100439.00
2022-08-28T06:49:45.662Z,100438.88
2022-08-28T06:54:55.633Z,100438.88
2022-08-28T07:00:00.850Z,100440.75
2022-08-28T07:05:03.712Z,100442.13
2022-08-28T07:10:07.215Z,100448.13
2022-08-28T07:15:12.016Z,100469.63
2022-08-28T07:20:15.026Z,100478.72
2022-08-28T07:25:17.990Z,100464.34
2022-08-28T07:30:23.071Z,100466.13
2022-08-28T07:35:26.120Z,100461.22
2022-08-28T07:40:29.077Z,100458.28
2022-08-28T07:45:33.656Z,100457.59
2022-08-28T07:50:36.423Z,100461.72
2022-08-28T07:55:39.984Z,100473.09
2022-08-28T08:00:44.230Z,100473.09
2022-08-28T08:05:52.846Z,100466.59
2022-08-28T08:10:59.871Z,100469.00
2022-08-28T08:16:06.502Z,100477.94
2022-08-28T08:21:11.729Z,100479.66
2022-08-28T08:26:15.739Z,100479.66
2022-08-28T08:31:21.687Z,100488.47
2022-08-28T08:36:26.410Z,100493.75
2022-08-28T08:41:30.837Z,100479.81
2022-08-28T08:46:36.147Z,100486.63
2022-08-28T08:51:42.491Z,100482.66
2022-08-28T08:56:45.274Z,100485.06
2022-08-28T09:01:53.201Z,100480.38
2022-08-28T09:06:59.534Z,100476.56
2022-08-28T09:12:04.773Z,100485.50
2022-08-28T09:17:08.958Z,100475.28
2022-08-28T09:22:11.808Z,100481.53
2022-08-28T09:27:23.096Z,100490.47
2022-08-28T09:32:31.613Z,100485.91
2022-08-28T09:37:34.713Z,100483.81
2022-08-28T09:42:54.825Z,100481.53
2022-08-28T09:47:59.287Z,100481.38
2022-08-28T09:53:16.507Z,100488.47
2022-08-28T09:58:19.237Z,100484.38
2022-08-28T10:03:26.845Z,100488.22
2022-08-28T10:08:40.917Z,100488.47
2022-08-28T10:13:45.914Z,100485.38
2022-08-28T10:18:52.282Z,100490.47
2022-08-28T10:24:13.422Z,100494.75
2022-08-28T10:29:23.854Z,100488.22
2022-08-28T10:34:35.903Z,100482.22
2022-08-28T10:39:48.398Z,100484.94
2022-08-28T10:44:52.917Z,100481.13
2022-08-28T10:50:01.728Z,100482.97
2022-08-28T10:55:06.375Z,100466.25
2022-08-28T11:00:12.032Z,100482.56
2022-08-28T11:05:17.401Z,100483.78
2022-08-28T11:10:40.570Z,100476.59
2022-08-28T11:15:53.363Z,100482.34
2022-08-28T11:21:08.899Z,100486.38
2022-08-28T11:26:12.732Z,100478.09
2022-08-28T11:31:33.585Z,100488.47
2022-08-28T11:37:03.206Z,100497.53
2022-08-28T11:42:32.307Z,100504.91
2022-08-28T11:47:43.325Z,100493.06
2022-08-28T11:53:17.052Z,100486.44
2022-08-28T11:58:21.897Z,100485.78
2022-08-28T12:03:29.097Z,100472.88
2022-08-28T12:09:11.640Z,100471.72
2022-08-28T12:14:43.298Z,100470.53
2022-08-28T12:19:55.461Z,100465.47
2022-08-28T12:25:00.119Z,100463.50
2022-08-28T12:30:02.999Z,100457.00
2022-08-28T12:35:17.830Z,100457.19
2022-08-28T12:40:23.613Z,100456.50
2022-08-28T12:45:28.909Z,100459.91
2022-08-28T12:50:35.853Z,100460.34
2022-08-28T12:55:38.816Z,100447.84
2022-08-28T13:00:50.593Z,100455.09
2022-08-28T13:05:59.613Z,100451.66
2022-08-28T13:11:02.355Z,100447.25
2022-08-28T13:16:05.468Z,100454.78
2022-08-28T13:21:35.000Z,100444.34
2022-08-28T13:26:38.462Z,100436.44
2022-08-28T13:31:42.528Z,100434.22
2022-08-28T13:36:48.225Z,100423.41
2022-08-28T13:41:53.115Z,100430.59
2022-08-28T13:46:56.404Z,100438.25
2022-08-28T13:52:01.300Z,100427.38
2022-08-28T13:57:05.100Z,100421.06
2022-08-28T14:02:25.948Z,100423.25
2022-08-28T14:07:30.535Z,100424.41
2022-08-28T14:12:33.675Z,100426.84
2022-08-28T14:17:36.454Z,100424.66
2022-08-28T14:22:40.879Z,100431.03
2022-08-28T14:27:43.562Z,100428.56
2022-08-28T14:32:46.272Z,100434.19
2022-08-28T14:37:50.311Z,100428.38
2022-08-28T14:42:53.190Z,100431.06
2022-08-28T14:47:55.910Z,100431.00
2022-08-28T14:52:59.979Z,100432.53
2022-08-28T14:58:02.650Z,100433.09
2022-08-28T15:03:05.358Z,100433.63
2022-08-28T15:08:09.962Z,100432.00
2022-08-28T15:13:15.852Z,100434.16
2022-08-28T15:18:18.597Z,100427.59
2022-08-28T15:23:22.607Z,100419.06
2022-08-28T15:28:25.278Z,100424.47
2022-08-28T15:33:27.973Z,100422.28
2022-08-28T15:38:52.607Z,100419.66
2022-08-28T15:43:55.845Z,100419.97
2022-08-28T15:48:58.830Z,100416.03
2022-08-28T15:54:03.467Z,100417.97
2022-08-28T15:59:06.156Z,100414.56
2022-08-28T16:04:08.907Z,100424.72
2022-08-28T16:09:13.137Z,100419.13
2022-08-28T16:14:20.858Z,100424.56
2022-08-28T16:19:23.925Z,100425.06
2022-08-28T16:24:28.016Z,100416.78
2022-08-28T16:29:30.667Z,100417.50
2022-08-28T16:34:33.404Z,100419.03
2022-08-28T16:39:37.585Z,100422.75
2022-08-28T16:44:40.337Z,100427.63
2022-08-28T16:49:43.497Z,100426.25
2022-08-28T16:54:48.687Z,100428.53
2022-08-28T16:59:53.081Z,100431.06
2022-08-28T17:04:58.627Z,100423.38
2022-08-28T17:10:02.794Z,100439.19
2022-08-28T17:15:06.742Z,100429.91
2022-08-28T17:20:28.858Z,100433.38
2022-08-28T17:25:32.993Z,100435.00
2022-08-28T17:30:35.928Z,100443.75
2022-08-28T17:35:42.152Z,100449.31
2022-08-28T17:40:46.422Z,100437.09
2022-08-28T17:45:49.426Z,100436.66
2022-08-28T17:50:52.224Z,100443.19
2022-08-28T17:55:56.360Z,100438.50
2022-08-28T18:00:59.397Z,100452.63
2022-08-28T18:06:02.857Z,100450.91
2022-08-28T18:11:07.249Z,100461.22
2022-08-28T18:16:10.399Z,100462.97
2022-08-28T18:21:13.392Z,100478.88
2022-08-28T18:26:18.323Z,100478.56
2022-08-28T18:31:21.158Z,100487.53
2022-08-28T18:36:24.146Z,100496.66
2022-08-28T18:41:35.775Z,100488.53
2022-08-28T18:46:48.163Z,100503.09
2022-08-28T18:51:51.014Z,100509.22
2022-08-28T18:57:01.354Z,100515.47
2022-08-28T19:02:07.579Z,100512.06
2022-08-28T19:07:10.798Z,100520.19
2022-08-28T19:12:15.655Z,100514.09
2022-08-28T19:17:21.069Z,100522.91
2022-08-28T19:22:24.220Z,100526.63
2022-08-28T19:27:28.785Z,100537.03
2022-08-28T19:32:31.944Z,100537.03
2022-08-28T19:37:34.998Z,100545.47
2022-08-28T19:42:39.546Z,100545.63
2022-08-28T19:47:42.459Z,100550.03
2022-08-28T19:52:45.570Z,100560.19
2022-08-28T19:57:49.742Z,100566.72
2022-08-28T20:02:52.880Z,100571.00
2022-08-28T20:07:55.606Z,100570.28
2022-08-28T20:12:59.989Z,100573.13
2022-08-28T20:18:02.829Z,100576.69
2022-08-28T20:23:05.743Z,100566.31
2022-08-28T20:28:11.456Z,100574.56
2022-08-28T20:33:14.427Z,100569.84
2022-08-28T20:38:17.396Z,100579.13
2022-08-28T20:43:21.673Z,100582.16
2022-08-28T20:48:25.073Z,100582.16
2022-08-28T20:53:37.495Z,100589.00
2022-08-28T20:58:42.381Z,100584.38
2022-08-28T21:03:45.636Z,100589.47
2022-08-28T21:08:49.935Z,100590.63
2022-08-28T21:13:53.963Z,100602.31
2022-08-28T21:19:14.543Z,100616.41
2022-08-28T21:24:18.325Z,100612.75
2022-08-28T21:29:22.948Z,100620.84
2022-08-28T21:34:25.630Z,100629.25
2022-08-28T21:39:28.387Z,100627.56
2022-08-28T21:44:32.533Z,100633.66
2022-08-28T21:49:35.347Z,100634.41
2022-08-28T21:54:41.024Z,100645.50
2022-08-28T21:59:45.449Z,100640.81
2022-08-28T22:04:48.396Z,100654.47
2022-08-28T22:09:52.015Z,100649.19
2022-08-28T22:14:56.021Z,100644.78
2022-08-28T22:19:58.702Z,100646.81
2022-08-28T22:25:01.379Z,100649.81
2022-08-28T22:30:06.323Z,100649.22
2022-08-28T22:35:10.520Z,100652.38
2022-08-28T22:40:13.950Z,100662.56
2022-08-28T22:45:18.686Z,100659.16
2022-08-28T22:50:21.603Z,100664.03
2022-08-28T22:55:24.320Z,100668.84
2022-08-28T23:00:30.056Z,100664.59
2022-08-28T23:05:33.378Z,100665.72
2022-08-28T23:10:57.371Z,100666.72
2022-08-28T23:16:01.330Z,100662.44
2022-08-28T23:21:07.586Z,100659.88
2022-08-28T23:26:12.418Z,100678.81
2022-08-28T23:31:16.497Z,100684.50
2022-08-28T23:36:19.196Z,100677.69
2022-08-28T23:41:22.029Z,100684.06
2022-08-28T23:46:26.202Z,100684.22
2022-08-28T23:51:29.174Z,100685.34
2022-08-28T23:56:31.931Z,100689.19
